createdAt,value
2018-09-15T00:02:34.029Z,7.80
2018-09-15T00:05:02.289Z,5.17
2018-09-15T00:07:30.522Z,7.83
2018-09-15T00:09:58.734Z,9.37
2018-09-15T00:12:26.943Z,7.87
2018-09-15T00:14:55.151Z,8.80
2018-09-15T00:17:23.416Z,6.67
2018-09-15T00:19:51.643Z,6.33
2018-09-15T00:22:19.911Z,7.00
2018-09-15T00:24:48.230Z,8.47
2018-09-15T00:27:16.475Z,7.73
2018-09-15T00:29:44.746Z,5.23
2018-09-15T00:32:13.015Z,3.47
2018-09-15T00:34:41.290Z,5.63
2018-09-15T00:37:10.395Z,5.90
2018-09-15T00:39:38.655Z,7.63
2018-09-15T00:42:06.913Z,5.73
2018-09-15T00:44:35.138Z,5.23
2018-09-15T00:47:03.377Z,3.50
2018-09-15T00:49:31.650Z,4.67
2018-09-15T00:51:59.872Z,5.93
2018-09-15T00:54:28.171Z,4.67
2018-09-15T00:56:56.413Z,7.77
2018-09-15T00:59:24.598Z,3.80
2018-09-15T01:01:52.794Z,7.50
2018-09-15T01:04:21.065Z,3.90
2018-09-15T01:06:49.278Z,4.60
2018-09-15T01:09:17.482Z,4.43
2018-09-15T01:11:45.738Z,3.27
2018-09-15T01:14:13.993Z,5.43
2018-09-15T01:16:42.173Z,8.23
2018-09-15T01:19:10.410Z,3.60
2018-09-15T01:21:38.629Z,3.37
2018-09-15T01:24:08.585Z,4.00
2018-09-15T01:26:36.842Z,2.53
2018-09-15T01:29:05.039Z,8.53
2018-09-15T01:31:33.290Z,7.33
2018-09-15T01:34:01.498Z,2.80
2018-09-15T01:36:29.769Z,3.87
2018-09-15T01:38:58.525Z,4.37
2018-09-15T01:41:26.939Z,6.17
2018-09-15T01:43:55.234Z,4.30
2018-09-15T01:46:23.544Z,6.27
2018-09-15T01:48:51.846Z,6.27
2018-09-15T01:51:20.105Z,3.27
2018-09-15T01:53:48.772Z,4.23
2018-09-15T01:56:17.001Z,4.93
2018-09-15T01:58:45.290Z,3.60
2018-09-15T02:01:13.553Z,3.07
2018-09-15T02:03:51.139Z,6.30
2018-09-15T02:06:19.414Z,4.77
2018-09-15T02:08:47.689Z,6.10
2018-09-15T02:11:15.997Z,4.83
2018-09-15T02:13:44.688Z,4.07
2018-09-15T02:16:12.942Z,6.63
2018-09-15T02:18:41.218Z,6.73
2018-09-15T02:21:09.433Z,2.70
2018-09-15T02:23:37.688Z,6.17
2018-09-15T02:26:05.906Z,4.20
2018-09-15T02:28:34.221Z,9.27
2018-09-15T02:31:02.498Z,5.00
2018-09-15T02:33:30.800Z,4.60
2018-09-15T02:35:59.069Z,3.23
2018-09-15T02:38:28.100Z,5.20
2018-09-15T02:40:56.359Z,4.00
2018-09-15T02:43:24.637Z,5.33
2018-09-15T02:45:52.868Z,4.53
2018-09-15T02:48:21.100Z,5.67
2018-09-15T02:50:49.309Z,4.97
2018-09-15T02:53:17.539Z,5.47
2018-09-15T02:55:45.777Z,4.53
2018-09-15T02:58:14.005Z,4.40
2018-09-15T03:00:42.299Z,8.53
2018-09-15T03:03:10.534Z,2.90
2018-09-15T03:05:38.843Z,5.90
2018-09-15T03:08:07.066Z,3.37
2018-09-15T03:10:35.468Z,5.37
2018-09-15T03:13:03.778Z,3.07
2018-09-15T03:15:32.058Z,6.50
2018-09-15T03:18:00.278Z,6.43
2018-09-15T03:20:28.582Z,5.57
2018-09-15T03:22:56.909Z,3.83
2018-09-15T03:25:25.202Z,2.90
2018-09-15T03:27:53.502Z,5.37
2018-09-15T03:30:21.790Z,3.47
2018-09-15T03:32:50.062Z,5.90
2018-09-15T03:35:18.378Z,5.57
2018-09-15T03:37:46.711Z,4.00
2018-09-15T03:40:15.047Z,5.13
2018-09-15T03:42:43.277Z,2.60
2018-09-15T03:45:11.556Z,3.00
2018-09-15T03:47:40.101Z,7.50
2018-09-15T03:50:08.390Z,3.57
2018-09-15T03:52:36.635Z,2.63
2018-09-15T03:55:04.899Z,2.60
2018-09-15T03:57:33.222Z,1.80
2018-09-15T04:00:01.487Z,4.60
2018-09-15T04:02:29.763Z,3.00
2018-09-15T04:04:58.040Z,7.17
2018-09-15T04:07:26.258Z,5.87
2018-09-15T04:09:54.556Z,3.73
2018-09-15T04:12:22.827Z,5.70
2018-09-15T04:14:51.049Z,3.93
2018-09-15T04:17:19.400Z,3.93
2018-09-15T04:19:47.685Z,2.47
2018-09-15T04:22:15.987Z,5.67
2018-09-15T04:24:44.285Z,5.47
2018-09-15T04:27:12.518Z,4.13
2018-09-15T04:29:40.779Z,8.20
2018-09-15T04:32:09.102Z,4.57
2018-09-15T04:34:37.355Z,7.03
2018-09-15T04:37:05.677Z,4.93
2018-09-15T04:39:33.935Z,6.40
2018-09-15T04:42:02.150Z,5.80
2018-09-15T04:44:30.447Z,5.83
2018-09-15T04:46:59.079Z,5.63
2018-09-15T04:49:27.454Z,3.83
2018-09-15T04:51:55.725Z,3.63
2018-09-15T04:54:24.319Z,4.20
2018-09-15T04:56:52.823Z,2.40
2018-09-15T04:59:27.665Z,5.77
2018-09-15T05:01:55.890Z,6.07
2018-09-15T05:04:24.109Z,4.20
2018-09-15T05:06:52.366Z,3.83
2018-09-15T05:09:20.577Z,4.23
2018-09-15T05:11:48.934Z,5.60
2018-09-15T05:14:17.180Z,4.07
2018-09-15T05:16:45.455Z,4.23
2018-09-15T05:19:13.683Z,3.63
2018-09-15T05:21:41.954Z,5.50
2018-09-15T05:24:10.199Z,3.13
2018-09-15T05:26:38.435Z,2.97
2018-09-15T05:29:06.970Z,10.97
2018-09-15T05:31:35.212Z,6.53
2018-09-15T05:34:03.424Z,6.97
2018-09-15T05:36:32.201Z,3.13
2018-09-15T05:39:00.407Z,8.47
2018-09-15T05:41:28.634Z,6.63
2018-09-15T05:43:56.894Z,6.77
2018-09-15T05:46:25.200Z,7.20
2018-09-15T05:48:53.448Z,5.17
2018-09-15T05:51:21.686Z,9.30
2018-09-15T05:53:49.987Z,9.00
2018-09-15T05:56:18.201Z,11.23
2018-09-15T05:58:46.487Z,6.63
2018-09-15T06:01:14.974Z,5.53
2018-09-15T06:03:43.241Z,5.93
2018-09-15T06:06:11.514Z,4.17
2018-09-15T06:08:39.718Z,7.57
2018-09-15T06:11:07.928Z,8.73
2018-09-15T06:13:36.167Z,8.70
2018-09-15T06:16:04.431Z,10.37
2018-09-15T06:18:32.691Z,6.67
2018-09-15T06:21:00.999Z,7.00
2018-09-15T06:23:29.418Z,4.83
2018-09-15T06:25:58.010Z,9.90
2018-09-15T06:28:26.291Z,5.90
2018-09-15T06:30:54.633Z,7.37
2018-09-15T06:33:22.936Z,7.77
2018-09-15T06:35:51.370Z,8.20
2018-09-15T06:38:19.597Z,11.43
2018-09-15T06:40:47.950Z,7.80
2018-09-15T06:43:16.274Z,7.40
2018-09-15T06:45:44.539Z,7.53
2018-09-15T06:48:12.810Z,6.73
2018-09-15T06:50:41.027Z,8.60
2018-09-15T06:53:09.299Z,4.73
2018-09-15T06:55:37.931Z,6.03
2018-09-15T06:58:06.157Z,10.37
2018-09-15T07:00:34.402Z,7.07
2018-09-15T07:03:02.685Z,5.17
2018-09-15T07:05:30.938Z,6.43
2018-09-15T07:07:59.343Z,7.30
2018-09-15T07:10:27.582Z,5.30
2018-09-15T07:12:55.927Z,5.90
2018-09-15T07:15:24.200Z,7.60
2018-09-15T07:17:52.441Z,4.83
2018-09-15T07:20:20.682Z,6.97
2018-09-15T07:22:48.928Z,10.53
2018-09-15T07:25:17.134Z,5.13
2018-09-15T07:27:45.697Z,6.63
2018-09-15T07:30:13.980Z,6.73
2018-09-15T07:32:42.337Z,6.03
2018-09-15T07:35:11.181Z,5.83
2018-09-15T07:37:40.145Z,7.17
2018-09-15T07:40:08.488Z,8.57
2018-09-15T07:42:36.757Z,4.03
2018-09-15T07:45:05.260Z,8.17
2018-09-15T07:47:33.542Z,13.13
2018-09-15T07:50:01.825Z,10.90
2018-09-15T07:52:30.148Z,6.17
2018-09-15T07:54:58.695Z,4.47
2018-09-15T07:57:26.948Z,7.43
2018-09-15T07:59:55.206Z,4.77
2018-09-15T08:02:24.110Z,7.33
2018-09-15T08:04:52.417Z,9.33
2018-09-15T08:07:20.734Z,7.77
2018-09-15T08:09:48.984Z,4.30
2018-09-15T08:12:18.177Z,3.13
2018-09-15T08:14:46.904Z,4.80
2018-09-15T08:17:15.207Z,11.90
2018-09-15T08:19:43.582Z,6.53
2018-09-15T08:22:11.831Z,5.93
2018-09-15T08:24:40.371Z,6.43
2018-09-15T08:27:08.811Z,6.73
2018-09-15T08:29:37.155Z,6.77
2018-09-15T08:32:06.084Z,5.60
2018-09-15T08:34:34.447Z,4.43
2018-09-15T08:37:02.862Z,8.50
2018-09-15T08:39:31.144Z,7.03
2018-09-15T08:41:59.548Z,8.57
2018-09-15T08:44:27.886Z,7.63
2018-09-15T08:46:56.172Z,5.23
2018-09-15T08:49:24.545Z,6.57
2018-09-15T08:51:52.894Z,9.87
2018-09-15T08:54:21.225Z,4.93
2018-09-15T08:56:51.894Z,7.43
2018-09-15T08:59:20.427Z,5.37
2018-09-15T09:01:48.799Z,11.50
2018-09-15T09:04:17.257Z,4.87
2018-09-15T09:06:45.676Z,7.97
2018-09-15T09:09:18.232Z,3.67
2018-09-15T09:11:46.542Z,3.37
2018-09-15T09:14:15.157Z,3.93
2018-09-15T09:16:45.003Z,3.70
2018-09-15T09:19:13.731Z,5.00
2018-09-15T09:21:42.088Z,8.57
2018-09-15T09:24:10.715Z,5.70
2018-09-15T09:26:39.099Z,7.33
2018-09-15T09:29:07.665Z,5.37
2018-09-15T09:31:35.902Z,4.47
2018-09-15T09:34:04.620Z,4.20
2018-09-15T09:36:33.023Z,7.37
2018-09-15T09:39:01.481Z,6.67
2018-09-15T09:41:29.895Z,4.47
2018-09-15T09:43:58.319Z,7.63
2018-09-15T09:46:27.246Z,5.50
2018-09-15T09:48:55.763Z,3.33
2018-09-15T09:51:24.215Z,6.27
2018-09-15T09:53:52.623Z,5.90
2018-09-15T09:56:20.973Z,7.40
2018-09-15T09:58:49.400Z,6.00
2018-09-15T10:01:27.908Z,6.40
2018-09-15T10:04:00.427Z,5.37
2018-09-15T10:06:28.695Z,6.00
2018-09-15T10:08:56.977Z,7.00
2018-09-15T10:11:26.734Z,2.87
2018-09-15T10:13:55.294Z,6.97
2018-09-15T10:16:24.032Z,5.80
2018-09-15T10:18:52.306Z,2.50
2018-09-15T10:21:20.577Z,5.20
2018-09-15T10:23:48.842Z,6.27
2018-09-15T10:26:17.141Z,7.83
2018-09-15T10:28:45.610Z,5.00
2018-09-15T10:31:20.449Z,5.20
2018-09-15T10:33:48.874Z,6.90
2018-09-15T10:36:17.181Z,4.43
2018-09-15T10:38:45.548Z,7.07
2018-09-15T10:41:15.679Z,8.90
2018-09-15T10:43:44.068Z,3.37
2018-09-15T10:46:12.528Z,4.63
2018-09-15T10:48:40.959Z,7.23
2018-09-15T10:51:09.228Z,5.07
2018-09-15T10:53:37.499Z,4.30
2018-09-15T10:56:05.879Z,3.10
2018-09-15T10:58:34.169Z,3.17
2018-09-15T11:01:02.684Z,4.60
2018-09-15T11:03:30.972Z,2.67
2018-09-15T11:05:59.748Z,6.97
2018-09-15T11:08:27.888Z,3.63
2018-09-15T11:10:56.364Z,6.13
2018-09-15T11:13:24.811Z,2.87
2018-09-15T11:15:53.154Z,5.03
2018-09-15T11:18:21.501Z,3.77
2018-09-15T11:20:49.724Z,5.93
2018-09-15T11:23:17.986Z,2.30
2018-09-15T11:25:46.337Z,6.63
2018-09-15T11:28:14.613Z,4.50
2018-09-15T11:30:42.966Z,4.93
2018-09-15T11:33:11.193Z,4.27
2018-09-15T11:35:39.572Z,2.53
2018-09-15T11:38:07.796Z,3.50
2018-09-15T11:40:36.089Z,4.03
2018-09-15T11:43:04.375Z,2.63
2018-09-15T11:45:32.763Z,3.57
2018-09-15T11:48:01.146Z,3.33
2018-09-15T11:50:29.367Z,3.13
2018-09-15T11:52:57.621Z,3.83
2018-09-15T11:55:25.895Z,4.07
2018-09-15T11:57:54.438Z,4.73
2018-09-15T12:00:28.333Z,4.60
2018-09-15T12:02:56.695Z,6.50
2018-09-15T12:05:25.078Z,3.47
2018-09-15T12:07:53.489Z,3.97
2018-09-15T12:10:21.730Z,2.33
2018-09-15T12:12:50.494Z,3.00
2018-09-15T12:15:19.152Z,1.33
2018-09-15T12:17:47.807Z,2.43
2018-09-15T12:20:16.654Z,1.97
2018-09-15T12:22:47.006Z,3.00
2018-09-15T12:25:15.242Z,4.23
2018-09-15T12:27:43.736Z,3.23
2018-09-15T12:30:12.182Z,3.33
2018-09-15T12:32:40.633Z,2.10
2018-09-15T12:35:09.028Z,2.57
2018-09-15T12:37:38.165Z,6.77
2018-09-15T12:40:06.612Z,3.47
2018-09-15T12:42:34.977Z,3.73
2018-09-15T12:45:03.373Z,1.57
2018-09-15T12:47:31.570Z,8.70
2018-09-15T12:49:59.881Z,4.93
2018-09-15T12:52:28.200Z,3.60
2018-09-15T12:54:56.455Z,1.60
2018-09-15T12:57:24.870Z,2.60
2018-09-15T12:59:53.521Z,3.33
2018-09-15T13:02:22.094Z,4.47
2018-09-15T13:04:50.346Z,2.53
2018-09-15T13:07:18.777Z,1.50
2018-09-15T13:09:47.165Z,3.20
2018-09-15T13:12:15.595Z,3.67
2018-09-15T13:14:44.099Z,3.60
2018-09-15T13:17:12.388Z,3.67
2018-09-15T13:19:41.146Z,2.87
2018-09-15T13:22:09.419Z,1.63
2018-09-15T13:24:37.787Z,3.03
2018-09-15T13:27:06.166Z,3.50
2018-09-15T13:29:34.506Z,5.87
2018-09-15T13:32:02.782Z,1.63
2018-09-15T13:34:31.283Z,1.90
2018-09-15T13:36:59.650Z,1.77
2018-09-15T13:39:27.930Z,1.83
2018-09-15T13:41:56.265Z,1.80
2018-09-15T13:44:24.555Z,2.63
2018-09-15T13:46:52.885Z,1.37
2018-09-15T13:49:21.140Z,2.23
2018-09-15T13:51:49.435Z,2.97
2018-09-15T13:54:17.815Z,2.77
2018-09-15T13:56:46.201Z,1.23
2018-09-15T13:59:14.613Z,2.83
2018-09-15T14:01:42.969Z,2.47
2018-09-15T14:04:11.255Z,2.27
2018-09-15T14:06:39.563Z,6.43
2018-09-15T14:09:09.170Z,2.40
2018-09-15T14:11:38.349Z,2.53
2018-09-15T14:14:06.772Z,1.80
2018-09-15T14:16:41.854Z,2.90
2018-09-15T14:19:10.054Z,2.07
2018-09-15T14:21:38.711Z,1.53
2018-09-15T14:24:07.472Z,3.40
2018-09-15T14:26:42.752Z,1.20
2018-09-15T14:29:11.104Z,6.57
2018-09-15T14:31:39.497Z,1.63
2018-09-15T14:34:07.942Z,2.57
2018-09-15T14:36:36.160Z,1.17
2018-09-15T14:39:06.224Z,3.50
2018-09-15T14:41:34.473Z,3.47
2018-09-15T14:44:03.174Z,2.57
2018-09-15T14:46:31.756Z,1.70
2018-09-15T14:48:59.974Z,1.87
2018-09-15T14:51:28.287Z,3.13
2018-09-15T14:53:56.620Z,4.83
2018-09-15T14:56:25.305Z,2.17
2018-09-15T14:58:53.775Z,2.23
2018-09-15T15:01:23.638Z,1.90
2018-09-15T15:03:52.600Z,2.47
2018-09-15T15:06:21.002Z,2.77
2018-09-15T15:08:49.641Z,4.07
2018-09-15T15:11:18.230Z,5.00
2018-09-15T15:13:46.945Z,1.97
2018-09-15T15:16:15.415Z,2.17
2018-09-15T15:18:43.738Z,4.87
2018-09-15T15:21:12.159Z,2.37
2018-09-15T15:23:40.407Z,3.40
2018-09-15T15:26:08.756Z,2.10
2018-09-15T15:28:37.087Z,2.10
2018-09-15T15:31:05.632Z,3.67
2018-09-15T15:33:33.990Z,3.90
2018-09-15T15:36:02.363Z,3.53
2018-09-15T15:38:30.741Z,1.63
2018-09-15T15:40:59.048Z,4.57
2018-09-15T15:43:27.483Z,1.67
2018-09-15T15:45:55.771Z,1.47
2018-09-15T15:48:24.358Z,1.47
2018-09-15T15:50:52.629Z,1.80
2018-09-15T15:53:21.114Z,2.10
2018-09-15T15:55:49.602Z,3.03
2018-09-15T15:58:18.037Z,3.10
2018-09-15T16:00:46.370Z,2.90
2018-09-15T16:03:15.071Z,1.70
2018-09-15T16:05:43.591Z,3.10
2018-09-15T16:08:13.023Z,1.30
2018-09-15T16:10:42.415Z,5.60
2018-09-15T16:13:10.815Z,4.47
2018-09-15T16:15:39.448Z,3.27
2018-09-15T16:18:07.726Z,2.80
2018-09-15T16:20:36.071Z,3.53
2018-09-15T16:23:04.445Z,1.20
2018-09-15T16:25:32.880Z,1.73
2018-09-15T16:28:01.341Z,2.93
2018-09-15T16:30:29.906Z,3.90
2018-09-15T16:32:58.204Z,1.73
2018-09-15T16:35:29.441Z,3.07
2018-09-15T16:37:57.799Z,2.13
2018-09-15T16:40:26.131Z,2.67
2018-09-15T16:42:54.567Z,2.10
2018-09-15T16:45:23.089Z,4.37
2018-09-15T16:47:51.403Z,1.40
2018-09-15T16:50:20.004Z,2.07
2018-09-15T16:52:48.435Z,5.40
2018-09-15T16:55:16.927Z,2.50
2018-09-15T16:57:45.541Z,4.27
2018-09-15T17:00:13.893Z,3.80
2018-09-15T17:02:42.386Z,3.63
2018-09-15T17:05:10.764Z,1.57
2018-09-15T17:07:39.117Z,2.13
2018-09-15T17:10:07.618Z,2.20
2018-09-15T17:12:35.786Z,2.87
2018-09-15T17:15:04.275Z,2.13
2018-09-15T17:17:32.534Z,1.97
2018-09-15T17:20:00.865Z,3.97
2018-09-15T17:22:29.145Z,2.97
2018-09-15T17:24:57.475Z,3.27
2018-09-15T17:27:25.763Z,4.87
2018-09-15T17:29:54.142Z,4.73
2018-09-15T17:32:22.403Z,6.87
2018-09-15T17:34:50.844Z,7.17
2018-09-15T17:37:20.471Z,8.73
2018-09-15T17:39:48.870Z,7.67
2018-09-15T17:42:17.072Z,6.03
2018-09-15T17:44:45.311Z,3.83
2018-09-15T17:47:13.906Z,9.70
2018-09-15T17:49:42.369Z,10.30
2018-09-15T17:52:10.642Z,7.83
2018-09-15T17:54:39.456Z,8.00
2018-09-15T17:57:08.233Z,6.03
2018-09-15T17:59:37.004Z,3.93
2018-09-15T18:02:05.372Z,10.10
2018-09-15T18:04:33.820Z,5.37
2018-09-15T18:07:02.118Z,2.00
2018-09-15T18:09:30.589Z,5.27
2018-09-15T18:11:58.793Z,4.07
2018-09-15T18:14:27.054Z,5.07
2018-09-15T18:16:55.350Z,8.67
2018-09-15T18:19:23.601Z,3.77
2018-09-15T18:21:52.195Z,6.20
2018-09-15T18:24:20.372Z,6.20
2018-09-15T18:26:48.615Z,4.70
2018-09-15T18:29:17.536Z,3.27
2018-09-15T18:31:45.778Z,7.77
2018-09-15T18:34:14.070Z,10.63
2018-09-15T18:36:42.452Z,19.07
2018-09-15T18:39:11.423Z,9.80
2018-09-15T18:41:40.029Z,13.07
2018-09-15T18:44:08.299Z,5.43
2018-09-15T18:46:36.572Z,8.80
2018-09-15T18:49:05.541Z,9.47
2018-09-15T18:51:33.830Z,11.10
2018-09-15T18:54:02.543Z,5.80
2018-09-15T18:56:30.801Z,8.13
2018-09-15T18:58:58.941Z,7.13
2018-09-15T19:01:27.145Z,6.23
2018-09-15T19:03:55.354Z,5.27
2018-09-15T19:06:23.591Z,6.73
2018-09-15T19:08:51.861Z,13.17
2018-09-15T19:11:20.078Z,6.77
2018-09-15T19:13:48.318Z,8.67
2018-09-15T19:16:16.569Z,5.20
2018-09-15T19:18:44.867Z,3.50
2018-09-15T19:21:13.178Z,4.17
2018-09-15T19:23:41.391Z,4.43
2018-09-15T19:26:10.684Z,7.23
2018-09-15T19:28:39.011Z,7.00
2018-09-15T19:31:07.296Z,7.03
2018-09-15T19:33:35.501Z,5.33
2018-09-15T19:36:03.750Z,10.17
2018-09-15T19:38:31.979Z,3.63
2018-09-15T19:41:00.290Z,6.03
2018-09-15T19:43:28.511Z,4.50
2018-09-15T19:45:59.783Z,5.47
2018-09-15T19:48:28.071Z,4.67
2018-09-15T19:50:56.386Z,3.57
2018-09-15T19:53:24.636Z,5.70
2018-09-15T19:55:53.368Z,4.53
2018-09-15T19:58:21.636Z,5.07
2018-09-15T20:00:49.853Z,7.93
2018-09-15T20:03:18.160Z,8.00
2018-09-15T20:05:46.446Z,10.63
2018-09-15T20:08:14.666Z,6.33
2018-09-15T20:10:43.236Z,8.93
2018-09-15T20:13:11.585Z,10.10
2018-09-15T20:15:38.827Z,16.87
2018-09-15T20:18:06.053Z,7.20
2018-09-15T20:20:33.303Z,10.70
2018-09-15T20:23:01.543Z,12.60
2018-09-15T20:25:29.970Z,13.40
2018-09-15T20:27:58.241Z,11.87
2018-09-15T20:30:27.076Z,10.70
2018-09-15T20:32:55.587Z,10.53
2018-09-15T20:35:23.838Z,10.70
2018-09-15T20:37:52.102Z,10.87
2018-09-15T20:40:20.462Z,7.37
2018-09-15T20:42:48.759Z,8.97
2018-09-15T20:45:17.908Z,17.03
2018-09-15T20:47:47.438Z,8.90
2018-09-15T20:50:15.768Z,9.47
2018-09-15T20:52:44.108Z,22.73
2018-09-15T20:55:12.575Z,9.53
2018-09-15T20:57:41.064Z,10.80
2018-09-15T21:00:10.327Z,9.50
2018-09-15T21:02:39.299Z,13.00
2018-09-15T21:05:07.779Z,13.73
2018-09-15T21:07:35.995Z,13.17
2018-09-15T21:10:04.434Z,10.77
2018-09-15T21:12:32.706Z,11.23
2018-09-15T21:15:00.979Z,15.33
2018-09-15T21:17:31.652Z,12.40
2018-09-15T21:20:00.457Z,11.47
2018-09-15T21:22:28.826Z,12.63
2018-09-15T21:24:57.051Z,13.60
2018-09-15T21:27:26.296Z,13.60
2018-09-15T21:29:55.030Z,14.93
2018-09-15T21:32:24.043Z,10.80
2018-09-15T21:34:53.047Z,10.43
2018-09-15T21:37:22.483Z,15.90
2018-09-15T21:39:51.331Z,15.20
2018-09-15T21:42:20.797Z,12.93
2018-09-15T21:44:49.848Z,11.07
2018-09-15T21:47:18.608Z,13.43
2018-09-15T21:49:47.678Z,9.93
2018-09-15T21:52:17.175Z,9.07
2018-09-15T21:54:45.434Z,10.40
2018-09-15T21:57:14.437Z,9.17
2018-09-15T21:59:43.356Z,7.77
2018-09-15T22:02:11.728Z,7.50
2018-09-15T22:04:40.060Z,10.20
2018-09-15T22:07:08.408Z,11.03
2018-09-15T22:09:36.757Z,11.20
2018-09-15T22:12:04.948Z,10.83
2018-09-15T22:14:33.322Z,13.27
2018-09-15T22:17:01.670Z,11.43
2018-09-15T22:19:29.941Z,12.97
2018-09-15T22:21:58.310Z,9.60
2018-09-15T22:24:26.707Z,12.70
2018-09-15T22:26:55.462Z,8.30
2018-09-15T22:29:24.102Z,9.60
2018-09-15T22:31:52.545Z,8.07
2018-09-15T22:34:21.311Z,8.07
2018-09-15T22:36:49.534Z,9.33
2018-09-15T22:39:17.810Z,7.03
2018-09-15T22:41:47.531Z,8.13
2018-09-15T22:44:15.850Z,10.27
2018-09-15T22:46:44.090Z,8.73
2018-09-15T22:49:12.345Z,8.63
2018-09-15T22:51:40.662Z,5.97
2018-09-15T22:54:09.607Z,10.37
2018-09-15T22:56:38.399Z,7.43
2018-09-15T22:59:06.990Z,5.13
2018-09-15T23:01:35.225Z,6.83
2018-09-15T23:04:05.128Z,7.10
2018-09-15T23:06:33.800Z,5.40
2018-09-15T23:09:02.018Z,6.53
2018-09-15T23:11:30.276Z,9.07
2018-09-15T23:13:58.524Z,9.60
2018-09-15T23:16:26.807Z,7.33
2018-09-15T23:18:55.041Z,6.50
2018-09-15T23:21:23.301Z,6.80
2018-09-15T23:23:51.581Z,9.87
2018-09-15T23:26:19.818Z,7.97
2018-09-15T23:28:48.024Z,6.43
2018-09-15T23:31:16.251Z,5.30
2018-09-15T23:33:44.474Z,7.33
2018-09-15T23:36:13.570Z,9.37
2018-09-15T23:38:41.820Z,8.10
2018-09-15T23:41:10.536Z,8.80
2018-09-15T23:43:39.248Z,9.17
2018-09-15T23:46:07.747Z,4.50
2018-09-15T23:48:36.182Z,3.70
2018-09-15T23:51:04.562Z,8.20
2018-09-15T23:53:32.825Z,7.27
2018-09-15T23:56:01.115Z,10.23
2018-09-15T23:58:29.290Z,10.60
